Tonkawa, Oklahoma
Current Conditions -  °F | °C
As of 2:15 AM on Thursday 27 Nov 2014 (Local Time) from KBKN Reporting Station
Clear Clear  
Wind Chill: 20°   Ceiling: Unl
Heat Index: 27°   Visibility: 10mi
Dew Point: 23°   Wind: 6mph
Humidity: 86%   Direction: 330°NNW
Pressure: 30.49"   Gusts: NA
Location:  36.68°N, 97.31°W
Report Text: KBKN 270815Z AUTO 33005KT 10SM CLR M03/M05 A3049 RMK AO2
Loading
Personal Weather Stations






























Interactive Weather Map New forecast layout! Learn more

10-Day Weather Forecast

Advertisements
Track Severe Weather on mobile